createdAt,value
2022-12-19T00:01:58.791Z,70.56
2022-12-19T00:04:29.411Z,70.59
2022-12-19T00:07:00.531Z,70.66
2022-12-19T00:09:30.874Z,70.66
2022-12-19T00:12:03.106Z,70.70
2022-12-19T00:14:33.961Z,70.60
2022-12-19T00:17:04.483Z,70.63
2022-12-19T00:19:35.055Z,70.71
2022-12-19T00:22:10.923Z,70.60
2022-12-19T00:24:41.700Z,70.62
2022-12-19T00:27:12.035Z,70.60
2022-12-19T00:29:42.401Z,70.34
2022-12-19T00:32:13.694Z,70.35
2022-12-19T00:34:46.607Z,70.41
2022-12-19T00:37:17.059Z,70.42
2022-12-19T00:39:47.668Z,70.31
2022-12-19T00:42:18.302Z,70.46
2022-12-19T00:44:49.521Z,70.33
2022-12-19T00:47:20.111Z,70.35
2022-12-19T00:49:53.601Z,70.39
2022-12-19T00:52:25.239Z,70.56
2022-12-19T00:54:55.895Z,70.70
2022-12-19T00:57:26.388Z,70.87
2022-12-19T00:59:56.970Z,70.62
2022-12-19T01:02:29.447Z,70.86
2022-12-19T01:04:59.992Z,70.75
2022-12-19T01:07:30.473Z,70.77
2022-12-19T01:10:04.351Z,70.71
2022-12-19T01:12:49.821Z,70.69
2022-12-19T01:15:22.882Z,70.69
2022-12-19T01:17:53.607Z,70.44
2022-12-19T01:20:28.999Z,70.34
2022-12-19T01:23:01.357Z,70.40
2022-12-19T01:25:32.162Z,70.51
2022-12-19T01:28:05.181Z,70.60
2022-12-19T01:30:36.952Z,70.51
2022-12-19T01:33:10.836Z,70.51
2022-12-19T01:35:41.978Z,70.59
2022-12-19T01:38:17.123Z,70.65
2022-12-19T01:40:52.723Z,70.67
2022-12-19T01:43:24.554Z,70.70
2022-12-19T01:46:03.144Z,70.74
2022-12-19T01:48:45.833Z,70.79
2022-12-19T01:51:24.031Z,70.68
2022-12-19T01:54:00.863Z,70.70
2022-12-19T01:56:37.978Z,70.74
2022-12-19T01:59:16.009Z,70.47
2022-12-19T02:01:51.783Z,70.61
2022-12-19T02:04:32.172Z,70.46
2022-12-19T02:07:15.529Z,70.43
2022-12-19T02:09:48.773Z,70.51
2022-12-19T02:12:29.726Z,70.46
2022-12-19T02:15:03.765Z,70.50
2022-12-19T02:17:52.576Z,70.51
2022-12-19T02:20:36.147Z,70.19
2022-12-19T02:23:40.378Z,70.54
2022-12-19T02:26:40.947Z,70.72
2022-12-19T02:29:35.831Z,70.81
2022-12-19T02:32:13.833Z,70.70
2022-12-19T02:35:00.006Z,70.62
2022-12-19T02:37:34.420Z,70.54
2022-12-19T02:40:18.740Z,70.56
2022-12-19T02:42:58.948Z,70.55
2022-12-19T02:45:36.377Z,70.56
2022-12-19T02:48:09.395Z,70.44
2022-12-19T02:50:50.019Z,70.51
2022-12-19T02:53:22.369Z,70.44
2022-12-19T02:56:24.205Z,70.43
2022-12-19T02:59:14.950Z,70.24
2022-12-19T03:01:57.549Z,70.10
2022-12-19T03:05:20.198Z,70.35
2022-12-19T03:08:04.216Z,70.52
2022-12-19T03:10:51.253Z,70.54
2022-12-19T03:13:37.199Z,70.66
2022-12-19T03:16:11.453Z,70.50
2022-12-19T03:18:42.695Z,70.47
2022-12-19T03:21:18.718Z,70.60
2022-12-19T03:23:51.985Z,70.59
2022-12-19T03:26:26.895Z,70.43
2022-12-19T03:29:21.609Z,70.50
2022-12-19T03:31:53.805Z,70.46
2022-12-19T03:34:42.299Z,70.28
2022-12-19T03:37:19.104Z,70.44
2022-12-19T03:39:57.361Z,70.27
2022-12-19T03:42:48.009Z,70.40
2022-12-19T03:45:27.833Z,70.42
2022-12-19T03:48:05.708Z,70.34
2022-12-19T03:50:50.454Z,70.37
2022-12-19T03:54:02.602Z,70.46
2022-12-19T03:56:36.068Z,70.57
2022-12-19T03:59:13.409Z,70.61
2022-12-19T04:01:45.438Z,70.57
2022-12-19T04:04:16.176Z,70.40
2022-12-19T04:06:47.595Z,70.38
2022-12-19T04:09:22.750Z,70.51
2022-12-19T04:12:04.194Z,70.39
2022-12-19T04:14:41.156Z,70.45
2022-12-19T04:17:30.179Z,70.39
2022-12-19T04:20:18.779Z,70.50
2022-12-19T04:22:53.208Z,70.43
2022-12-19T04:25:35.841Z,70.33
2022-12-19T04:28:19.191Z,70.44
2022-12-19T04:30:51.739Z,70.23
2022-12-19T04:33:22.672Z,70.19
2022-12-19T04:35:53.372Z,70.34
2022-12-19T04:38:23.864Z,70.38
2022-12-19T04:40:54.620Z,70.55
2022-12-19T04:43:25.297Z,70.48
2022-12-19T04:45:57.699Z,70.55
2022-12-19T04:48:28.543Z,70.44
2022-12-19T04:50:59.194Z,70.39
2022-12-19T04:53:29.956Z,70.27
2022-12-19T04:56:08.515Z,70.20
2022-12-19T04:58:38.882Z,70.42
2022-12-19T05:01:10.598Z,70.23
2022-12-19T05:03:41.539Z,70.29
2022-12-19T05:06:15.247Z,70.35
2022-12-19T05:08:46.206Z,70.33
2022-12-19T05:11:19.920Z,70.30
2022-12-19T05:13:52.099Z,70.26
2022-12-19T05:16:22.576Z,70.20
2022-12-19T05:18:52.942Z,70.23
2022-12-19T05:21:24.765Z,70.21
2022-12-19T05:23:55.433Z,70.28
2022-12-19T05:26:26.417Z,70.34
2022-12-19T05:28:57.173Z,70.44
2022-12-19T05:31:27.685Z,70.36
2022-12-19T05:33:58.190Z,70.52
2022-12-19T05:36:32.478Z,70.51
2022-12-19T05:39:03.257Z,70.39
2022-12-19T05:41:33.650Z,70.39
2022-12-19T05:44:04.043Z,70.51
2022-12-19T05:46:34.368Z,70.40
2022-12-19T05:49:04.852Z,70.32
2022-12-19T05:51:35.660Z,70.18
2022-12-19T05:54:06.527Z,70.22
2022-12-19T05:56:37.023Z,70.23
2022-12-19T05:59:07.456Z,70.11
2022-12-19T06:01:37.994Z,70.23
2022-12-19T06:04:09.166Z,70.15
2022-12-19T06:06:40.058Z,70.20
2022-12-19T06:09:13.248Z,70.24
2022-12-19T06:11:44.081Z,70.14
2022-12-19T06:14:14.558Z,70.38
2022-12-19T06:16:44.985Z,70.31
2022-12-19T06:19:17.825Z,70.25
2022-12-19T06:21:50.035Z,70.40
2022-12-19T06:24:20.612Z,70.18
2022-12-19T06:26:51.039Z,70.26
2022-12-19T06:29:21.515Z,70.21
2022-12-19T06:31:54.633Z,70.26
2022-12-19T06:35:02.268Z,70.14
2022-12-19T06:37:17.785Z,70.14
2022-12-19T06:39:48.357Z,70.07
2022-12-19T06:42:25.126Z,70.07
2022-12-19T06:44:57.353Z,70.09
2022-12-19T06:47:27.885Z,70.14
2022-12-19T06:49:58.313Z,70.22
2022-12-19T06:52:29.183Z,70.12
2022-12-19T06:55:00.089Z,70.22
2022-12-19T06:57:30.513Z,70.41
2022-12-19T07:00:00.843Z,70.27
2022-12-19T07:02:33.806Z,70.44
2022-12-19T07:05:07.744Z,70.61
2022-12-19T07:07:38.779Z,70.57
2022-12-19T07:10:10.652Z,70.74
2022-12-19T07:12:41.052Z,70.92
2022-12-19T07:15:12.154Z,70.96
2022-12-19T07:17:43.087Z,70.45
2022-12-19T07:20:15.759Z,70.44
2022-12-19T07:22:46.921Z,70.35
2022-12-19T07:25:18.221Z,70.21
2022-12-19T07:27:49.479Z,70.17
2022-12-19T07:30:20.245Z,70.11
2022-12-19T07:32:50.700Z,69.95
2022-12-19T07:35:24.745Z,69.85
2022-12-19T07:37:55.125Z,69.89
2022-12-19T07:40:25.600Z,69.75
2022-12-19T07:42:56.131Z,69.97
2022-12-19T07:45:27.501Z,69.87
2022-12-19T07:47:58.252Z,69.76
2022-12-19T07:50:28.942Z,69.70
2022-12-19T07:53:00.183Z,69.73
2022-12-19T07:55:30.980Z,69.68
2022-12-19T07:58:03.051Z,69.65
2022-12-19T08:00:33.527Z,69.61
2022-12-19T08:03:04.807Z,69.68
2022-12-19T08:05:35.660Z,69.87
2022-12-19T08:08:06.581Z,69.85
2022-12-19T08:10:37.184Z,70.06
2022-12-19T08:13:07.696Z,70.04
2022-12-19T08:15:38.154Z,70.07
2022-12-19T08:18:09.875Z,70.15
2022-12-19T08:20:40.328Z,70.32
2022-12-19T08:23:11.175Z,70.07
2022-12-19T08:25:41.516Z,70.06
2022-12-19T08:28:12.006Z,70.09
2022-12-19T08:30:43.108Z,70.09
2022-12-19T08:33:13.838Z,69.96
2022-12-19T08:35:44.482Z,69.92
2022-12-19T08:38:14.831Z,69.66
2022-12-19T08:40:47.514Z,69.70
2022-12-19T08:43:18.229Z,69.49
2022-12-19T08:45:51.634Z,69.55
2022-12-19T08:48:22.567Z,69.65
2022-12-19T08:50:58.541Z,69.55
2022-12-19T08:53:30.591Z,69.57
2022-12-19T08:56:02.970Z,69.64
2022-12-19T08:58:33.533Z,69.53
2022-12-19T09:01:09.420Z,69.34
2022-12-19T09:04:56.399Z,69.39
2022-12-19T09:06:30.606Z,69.39
2022-12-19T09:10:05.082Z,69.41
2022-12-19T09:12:35.655Z,69.48
2022-12-19T09:15:06.581Z,69.73
2022-12-19T09:17:37.188Z,69.81
2022-12-19T09:20:09.300Z,69.76
2022-12-19T09:22:39.802Z,69.59
2022-12-19T09:25:11.297Z,69.60
2022-12-19T09:28:17.552Z,70.05
2022-12-19T09:30:35.568Z,69.88
2022-12-19T09:33:06.504Z,69.96
2022-12-19T09:35:37.294Z,69.87
2022-12-19T09:38:07.649Z,69.81
2022-12-19T09:40:54.801Z,69.88
2022-12-19T09:43:28.161Z,69.71
2022-12-19T09:46:09.723Z,69.60
2022-12-19T09:48:40.965Z,69.41
2022-12-19T09:51:46.339Z,69.46
2022-12-19T09:54:40.136Z,69.51
2022-12-19T09:57:39.324Z,69.50
2022-12-19T10:00:20.572Z,69.42
2022-12-19T10:08:07.145Z,69.40
2022-12-19T10:12:38.461Z,69.41
2022-12-19T10:14:01.812Z,69.44
2022-12-19T10:17:23.001Z,69.28
2022-12-19T10:20:41.858Z,69.32
2022-12-19T10:23:41.402Z,69.16
2022-12-19T10:26:31.393Z,69.10
2022-12-19T10:29:20.819Z,69.20
2022-12-19T10:32:29.758Z,69.13
2022-12-19T10:35:00.776Z,69.13
2022-12-19T10:37:45.650Z,69.21
2022-12-19T10:40:35.166Z,69.24
2022-12-19T10:43:22.933Z,69.22
2022-12-19T10:46:06.879Z,68.97
2022-12-19T10:48:37.797Z,69.04
2022-12-19T10:51:14.367Z,69.20
2022-12-19T10:53:58.853Z,69.21
2022-12-19T10:56:37.432Z,69.36
2022-12-19T10:59:21.191Z,69.38
2022-12-19T11:02:00.770Z,69.62
2022-12-19T11:04:36.081Z,69.61
2022-12-19T11:07:19.347Z,69.75
2022-12-19T11:10:16.180Z,69.71
2022-12-19T11:18:10.800Z,69.72
2022-12-19T11:21:26.933Z,69.72
2022-12-19T11:27:28.804Z,69.39
2022-12-19T11:29:47.127Z,69.33
2022-12-19T11:30:39.546Z,69.50
2022-12-19T11:30:45.729Z,69.36
2022-12-19T11:33:24.626Z,69.14
2022-12-19T11:35:58.947Z,69.19
2022-12-19T11:38:53.302Z,69.16
2022-12-19T11:41:28.122Z,69.02
2022-12-19T11:44:05.025Z,69.11
2022-12-19T11:46:42.782Z,69.05
2022-12-19T11:49:22.662Z,68.97
2022-12-19T11:53:02.146Z,68.93
2022-12-19T11:55:32.203Z,68.99
2022-12-19T11:58:02.760Z,68.95
2022-12-19T12:00:35.790Z,69.00
2022-12-19T12:03:54.061Z,68.80
2022-12-19T12:07:24.219Z,68.78
2022-12-19T12:14:47.041Z,69.06
2022-12-19T12:21:52.732Z,68.91
2022-12-19T12:31:08.449Z,68.89
2022-12-19T12:31:16.107Z,68.78
2022-12-19T12:31:31.015Z,68.74
2022-12-19T12:32:05.394Z,68.94
2022-12-19T12:32:06.760Z,68.85
2022-12-19T12:35:38.056Z,68.87
2022-12-19T12:39:25.415Z,68.88
2022-12-19T12:42:24.331Z,68.82
2022-12-19T12:44:58.917Z,68.83
2022-12-19T12:47:30.582Z,68.65
2022-12-19T12:50:17.494Z,68.72
2022-12-19T12:52:51.778Z,68.64
2022-12-19T12:55:28.313Z,68.72
2022-12-19T13:03:21.556Z,68.49
2022-12-19T13:06:06.603Z,68.48
2022-12-19T13:08:41.409Z,68.54
2022-12-19T13:11:35.830Z,68.52
2022-12-19T13:14:37.773Z,68.47
2022-12-19T13:17:13.202Z,68.50
2022-12-19T13:20:06.635Z,68.28
2022-12-19T13:22:36.891Z,68.45
2022-12-19T13:25:28.473Z,68.37
2022-12-19T13:28:05.160Z,68.30
2022-12-19T13:30:59.501Z,68.25
2022-12-19T13:33:26.792Z,68.68
2022-12-19T13:39:52.108Z,68.41
2022-12-19T13:40:00.636Z,68.27
2022-12-19T13:42:01.709Z,68.51
2022-12-19T13:44:33.981Z,68.21
2022-12-19T13:47:04.435Z,68.32
2022-12-19T13:49:37.413Z,68.28
2022-12-19T13:52:09.147Z,68.14
2022-12-19T13:54:57.848Z,67.99
2022-12-19T13:57:33.782Z,68.15
2022-12-19T14:00:10.041Z,68.17
2022-12-19T14:02:45.896Z,68.27
2022-12-19T14:06:15.752Z,68.25
2022-12-19T14:08:30.997Z,68.28
2022-12-19T14:11:39.252Z,68.16
2022-12-19T14:14:27.301Z,68.04
2022-12-19T14:17:10.924Z,68.22
2022-12-19T14:19:47.974Z,68.17
2022-12-19T14:22:25.895Z,68.22
2022-12-19T14:25:32.141Z,68.31
2022-12-19T14:28:25.155Z,68.23
2022-12-19T14:30:52.261Z,68.33
2022-12-19T14:34:04.308Z,68.39
2022-12-19T14:36:36.422Z,68.32
2022-12-19T14:39:19.735Z,68.37
2022-12-19T14:42:24.273Z,68.54
2022-12-19T14:52:25.897Z,68.39
2022-12-19T14:54:37.729Z,68.31
2022-12-19T14:59:04.958Z,68.28
2022-12-19T15:01:38.119Z,68.20
2022-12-19T15:04:52.104Z,68.24
2022-12-19T15:07:18.108Z,68.28
2022-12-19T15:11:04.630Z,68.33
2022-12-19T15:14:54.785Z,68.22
2022-12-19T15:16:29.783Z,68.34
2022-12-19T15:19:02.389Z,68.19
2022-12-19T15:21:33.792Z,68.24
2022-12-19T15:24:04.269Z,68.23
2022-12-19T15:26:37.469Z,68.21
2022-12-19T15:29:16.676Z,68.23
2022-12-19T15:31:52.424Z,68.21
2022-12-19T15:34:51.864Z,68.17
2022-12-19T15:37:22.208Z,68.15
2022-12-19T15:39:52.851Z,68.19
2022-12-19T15:42:28.643Z,68.12
2022-12-19T15:45:00.731Z,68.26
2022-12-19T15:47:34.589Z,68.09
2022-12-19T15:50:18.255Z,68.09
2022-12-19T15:52:48.788Z,68.22
2022-12-19T15:55:21.615Z,68.25
2022-12-19T15:58:00.522Z,68.29
2022-12-19T16:00:37.100Z,68.05
2022-12-19T16:03:25.257Z,68.17
2022-12-19T16:05:56.754Z,68.10
2022-12-19T16:08:27.089Z,68.08
2022-12-19T16:11:02.086Z,68.13
2022-12-19T16:13:37.059Z,68.21
2022-12-19T16:16:15.450Z,68.17
2022-12-19T16:18:47.782Z,68.17
2022-12-19T16:21:33.730Z,68.15
2022-12-19T16:24:05.313Z,68.05
2022-12-19T16:26:38.115Z,68.11
2022-12-19T16:29:20.962Z,68.17
2022-12-19T16:31:51.669Z,68.29
2022-12-19T16:34:24.345Z,68.40
2022-12-19T16:36:57.498Z,68.38
2022-12-19T16:39:28.267Z,68.46
2022-12-19T16:41:58.698Z,68.42
2022-12-19T16:44:36.502Z,68.49
2022-12-19T16:47:16.310Z,68.41
2022-12-19T16:49:47.267Z,68.55
2022-12-19T16:52:17.654Z,68.27
2022-12-19T16:54:51.422Z,68.36
2022-12-19T16:57:24.244Z,68.42
2022-12-19T16:59:54.687Z,68.36
2022-12-19T17:02:40.955Z,68.35
2022-12-19T17:05:31.056Z,68.49
2022-12-19T17:08:02.257Z,68.51
2022-12-19T17:10:34.763Z,68.40
2022-12-19T17:13:05.694Z,68.31
2022-12-19T17:15:39.299Z,68.43
2022-12-19T17:18:17.286Z,68.42
2022-12-19T17:21:27.558Z,68.44
2022-12-19T17:23:58.053Z,68.28
2022-12-19T17:26:28.398Z,68.30
2022-12-19T17:28:58.935Z,68.43
2022-12-19T17:31:38.353Z,68.47
2022-12-19T17:34:30.232Z,68.51
2022-12-19T17:37:02.274Z,68.59
2022-12-19T17:39:35.432Z,68.71
2022-12-19T17:42:22.105Z,68.81
2022-12-19T17:44:53.264Z,68.79
2022-12-19T17:47:24.798Z,68.63
2022-12-19T17:49:55.490Z,68.58
2022-12-19T17:52:28.783Z,68.63
2022-12-19T17:54:59.515Z,68.49
2022-12-19T17:57:30.448Z,68.66
2022-12-19T18:00:03.036Z,68.63
2022-12-19T18:02:43.515Z,68.60
2022-12-19T18:05:26.520Z,68.56
2022-12-19T18:07:57.714Z,68.47
2022-12-19T18:10:32.386Z,68.47
2022-12-19T18:13:02.947Z,68.57
2022-12-19T18:15:33.574Z,68.62
2022-12-19T18:18:04.240Z,68.60
2022-12-19T18:20:35.904Z,68.54
2022-12-19T18:23:19.765Z,68.46
2022-12-19T18:25:56.130Z,68.75
2022-12-19T18:28:30.574Z,68.65
2022-12-19T18:31:04.726Z,68.56
2022-12-19T18:33:41.979Z,68.63
2022-12-19T18:36:20.752Z,68.81
2022-12-19T18:38:51.958Z,68.71
2022-12-19T18:41:23.559Z,68.80
2022-12-19T18:43:54.720Z,68.76
2022-12-19T18:46:30.423Z,68.84
2022-12-19T18:49:01.080Z,68.81
2022-12-19T18:51:32.509Z,68.98
2022-12-19T18:54:03.365Z,68.86
2022-12-19T18:56:34.385Z,68.83
2022-12-19T18:59:05.881Z,68.89
2022-12-19T19:01:41.411Z,68.75
2022-12-19T19:04:15.613Z,68.83
2022-12-19T19:06:51.624Z,68.78
2022-12-19T19:09:24.468Z,68.75
2022-12-19T19:12:13.537Z,68.80
2022-12-19T19:14:45.365Z,68.82
2022-12-19T19:17:27.171Z,68.97
2022-12-19T19:19:58.599Z,68.82
2022-12-19T19:22:30.059Z,68.75
2022-12-19T19:25:01.908Z,68.77
2022-12-19T19:27:32.529Z,68.72
2022-12-19T19:30:13.795Z,68.76
2022-12-19T19:32:52.730Z,68.81
2022-12-19T19:35:24.264Z,68.90
2022-12-19T19:37:58.550Z,69.17
2022-12-19T19:40:29.779Z,68.98
2022-12-19T19:43:01.614Z,69.00
2022-12-19T19:45:33.738Z,68.95
2022-12-19T19:48:10.194Z,69.13
2022-12-19T19:50:42.251Z,69.16
2022-12-19T19:58:01.314Z,69.10
2022-12-19T20:00:36.190Z,69.12
2022-12-19T20:03:09.904Z,69.27
2022-12-19T20:05:41.687Z,69.17
2022-12-19T20:08:12.243Z,69.20
2022-12-19T20:10:43.281Z,69.36
2022-12-19T20:13:14.853Z,69.29
2022-12-19T20:15:49.921Z,69.36
2022-12-19T20:18:20.741Z,69.56
2022-12-19T20:20:52.253Z,69.60
2022-12-19T20:23:23.180Z,69.71
2022-12-19T20:25:54.613Z,69.77
2022-12-19T20:28:25.774Z,69.89
2022-12-19T20:30:56.931Z,69.69
2022-12-19T20:33:30.850Z,69.94
2022-12-19T20:36:13.576Z,69.83
2022-12-19T20:38:50.393Z,69.97
2022-12-19T20:41:22.415Z,70.05
2022-12-19T20:43:53.932Z,69.89
2022-12-19T20:46:25.232Z,69.81
2022-12-19T20:48:56.477Z,69.84
2022-12-19T20:51:27.032Z,69.89
2022-12-19T20:53:57.760Z,70.00
2022-12-19T20:56:29.044Z,70.04
2022-12-19T21:03:32.397Z,70.30
2022-12-19T21:06:03.918Z,70.36
2022-12-19T21:08:35.770Z,70.42
2022-12-19T21:11:07.501Z,70.41
2022-12-19T21:13:39.388Z,70.37
2022-12-19T21:16:13.796Z,70.29
2022-12-19T21:18:45.831Z,70.44
2022-12-19T21:21:19.205Z,70.47
2022-12-19T21:23:50.607Z,70.52
2022-12-19T21:26:23.958Z,70.73
2022-12-19T21:28:55.242Z,70.71
2022-12-19T21:31:29.199Z,70.79
2022-12-19T21:34:02.676Z,70.91
2022-12-19T21:36:35.390Z,70.99
2022-12-19T21:39:08.597Z,70.88
2022-12-19T21:41:39.377Z,70.99
2022-12-19T21:44:09.710Z,70.84
2022-12-19T21:46:40.045Z,70.95
2022-12-19T21:49:11.610Z,71.03
2022-12-19T21:51:42.370Z,71.16
2022-12-19T21:54:13.135Z,71.20
2022-12-19T21:56:43.784Z,71.23
2022-12-19T21:59:18.788Z,71.31
2022-12-19T22:01:49.274Z,71.29
2022-12-19T22:04:22.426Z,71.46
2022-12-19T22:07:32.459Z,71.35
2022-12-19T22:10:02.913Z,71.35
2022-12-19T22:12:33.560Z,71.36
2022-12-19T22:15:03.965Z,71.41
2022-12-19T22:17:34.564Z,71.57
2022-12-19T22:20:05.224Z,71.68
2022-12-19T22:22:36.692Z,71.85
2022-12-19T22:25:07.729Z,71.86
2022-12-19T22:27:38.163Z,71.78
2022-12-19T22:30:11.517Z,71.94
2022-12-19T22:32:42.112Z,71.83
2022-12-19T22:35:14.520Z,71.77
2022-12-19T22:37:45.489Z,71.75
2022-12-19T22:40:16.117Z,72.01
2022-12-19T22:42:46.796Z,72.07
2022-12-19T22:45:18.013Z,72.19
2022-12-19T22:47:48.203Z,72.27
2022-12-19T22:50:18.564Z,72.20
2022-12-19T22:52:51.775Z,72.27
2022-12-19T22:55:22.292Z,72.34
2022-12-19T22:57:52.808Z,72.16
2022-12-19T23:00:23.560Z,72.15
2022-12-19T23:02:59.670Z,72.33
2022-12-19T23:05:33.424Z,72.42
2022-12-19T23:08:04.501Z,72.65
2022-12-19T23:10:37.979Z,72.68
2022-12-19T23:13:08.562Z,72.73
2022-12-19T23:15:39.085Z,72.62
2022-12-19T23:18:09.404Z,72.71
2022-12-19T23:20:39.611Z,72.68
2022-12-19T23:23:09.822Z,72.59
2022-12-19T23:25:44.152Z,72.59
2022-12-19T23:28:14.319Z,72.75
2022-12-19T23:30:44.950Z,72.79
2022-12-19T23:33:15.402Z,72.94
2022-12-19T23:35:45.989Z,72.93
2022-12-19T23:38:16.361Z,72.95
2022-12-19T23:40:46.947Z,72.96
2022-12-19T23:43:17.414Z,73.04
2022-12-19T23:45:48.071Z,72.94
2022-12-19T23:48:18.233Z,72.94
2022-12-19T23:50:48.353Z,72.97
2022-12-19T23:53:18.240Z,73.15
2022-12-19T23:55:51.921Z,73.35
2022-12-19T23:58:24.612Z,73.32
